createdAt,value
2022-12-15T00:00:49.519Z,3.65
2022-12-15T00:03:37.280Z,3.42
2022-12-15T00:06:24.632Z,3.42
2022-12-15T00:09:14.397Z,3.75
2022-12-15T00:12:02.846Z,3.67
2022-12-15T00:14:50.255Z,4.30
2022-12-15T00:17:37.363Z,3.45
2022-12-15T00:20:24.724Z,4.15
2022-12-15T00:23:11.814Z,4.78
2022-12-15T00:25:58.902Z,4.63
2022-12-15T00:28:46.138Z,4.20
2022-12-15T00:34:20.154Z,4.78
2022-12-15T00:37:07.274Z,5.38
2022-12-15T00:39:36.154Z,5.18
2022-12-15T00:42:05.059Z,4.97
2022-12-15T00:44:33.917Z,7.45
2022-12-15T00:47:02.805Z,7.28
2022-12-15T00:49:50.918Z,6.38
2022-12-15T00:52:38.426Z,6.70
2022-12-15T00:55:25.697Z,6.47
2022-12-15T00:58:15.908Z,6.53
2022-12-15T01:01:03.113Z,5.72
2022-12-15T01:03:50.282Z,5.75
2022-12-15T01:06:39.583Z,5.95
2022-12-15T01:09:30.310Z,5.40
2022-12-15T01:12:17.339Z,5.20
2022-12-15T01:17:51.478Z,6.38
2022-12-15T01:20:20.500Z,5.63
2022-12-15T01:22:54.784Z,5.82
2022-12-15T01:25:25.831Z,5.25
2022-12-15T01:27:54.943Z,5.90
2022-12-15T01:30:26.899Z,6.75
2022-12-15T01:32:55.767Z,5.38
2022-12-15T01:35:24.487Z,6.15
2022-12-15T01:37:53.328Z,5.47
2022-12-15T01:40:41.132Z,7.65
2022-12-15T01:43:15.639Z,11.95
2022-12-15T01:45:59.235Z,10.73
2022-12-15T01:48:35.121Z,9.02
2022-12-15T01:51:17.196Z,8.43
2022-12-15T01:53:51.769Z,8.65
2022-12-15T01:56:22.614Z,9.20
2022-12-15T01:58:54.604Z,10.50
2022-12-15T02:01:32.937Z,7.32
2022-12-15T02:04:05.643Z,6.30
2022-12-15T02:06:34.720Z,6.15
2022-12-15T02:09:04.296Z,6.45
2022-12-15T02:11:45.098Z,5.97
2022-12-15T02:14:36.269Z,5.82
2022-12-15T02:17:23.711Z,4.18
2022-12-15T02:20:07.426Z,5.60
2022-12-15T02:22:50.694Z,4.85
2022-12-15T02:25:25.274Z,4.90
2022-12-15T02:28:03.038Z,4.28
2022-12-15T02:30:34.454Z,4.70
2022-12-15T02:33:22.478Z,5.60
2022-12-15T02:36:24.548Z,8.52
2022-12-15T02:38:53.442Z,7.93
2022-12-15T02:41:53.621Z,7.32
2022-12-15T02:44:25.588Z,7.00
2022-12-15T02:47:18.723Z,6.00
2022-12-15T02:50:05.466Z,5.65
2022-12-15T02:52:57.128Z,4.75
2022-12-15T02:55:38.821Z,5.53
2022-12-15T02:58:25.579Z,5.90
2022-12-15T03:01:02.656Z,6.75
2022-12-15T03:03:34.420Z,6.32
2022-12-15T03:06:06.039Z,7.22
2022-12-15T03:08:34.807Z,7.05
2022-12-15T03:11:03.793Z,6.22
2022-12-15T03:13:33.036Z,6.32
2022-12-15T03:16:02.577Z,6.00
2022-12-15T03:18:31.629Z,5.70
2022-12-15T03:21:00.300Z,6.07
2022-12-15T03:23:29.802Z,5.38
2022-12-15T03:25:58.919Z,5.43
2022-12-15T03:28:27.604Z,5.55
2022-12-15T03:30:57.271Z,4.88
2022-12-15T03:33:26.089Z,5.05
2022-12-15T03:35:54.768Z,5.60
2022-12-15T03:38:23.504Z,5.38
2022-12-15T03:40:52.138Z,5.57
2022-12-15T03:43:21.018Z,5.63
2022-12-15T03:45:49.822Z,7.05
2022-12-15T03:48:18.682Z,7.28
2022-12-15T03:50:49.032Z,9.63
2022-12-15T03:53:18.017Z,14.50
2022-12-15T03:55:46.784Z,11.90
2022-12-15T03:58:15.636Z,9.60
2022-12-15T04:00:44.337Z,8.43
2022-12-15T04:03:13.741Z,7.82
2022-12-15T04:05:42.784Z,7.00
2022-12-15T04:08:12.113Z,7.55
2022-12-15T04:10:41.042Z,7.05
2022-12-15T04:13:12.668Z,6.55
2022-12-15T04:15:42.384Z,6.85
2022-12-15T04:18:12.298Z,6.25
2022-12-15T04:20:41.807Z,6.40
2022-12-15T04:23:10.823Z,6.40
2022-12-15T04:25:57.983Z,6.18
2022-12-15T04:31:37.400Z,8.35
2022-12-15T04:34:29.372Z,9.55
2022-12-15T04:37:48.497Z,9.10
2022-12-15T04:43:22.179Z,8.55
2022-12-15T04:46:09.515Z,9.82
2022-12-15T04:51:43.118Z,21.38
2022-12-15T04:54:30.250Z,17.55
2022-12-15T04:57:17.239Z,13.63
2022-12-15T05:00:04.227Z,9.63
2022-12-15T05:02:51.557Z,8.65
2022-12-15T05:08:25.201Z,13.27
2022-12-15T05:11:14.262Z,9.45
2022-12-15T05:14:01.538Z,8.93
2022-12-15T05:19:35.527Z,11.90
2022-12-15T05:22:23.307Z,11.48
2022-12-15T05:28:00.010Z,10.30
2022-12-15T05:30:47.708Z,15.30
2022-12-15T05:33:16.531Z,13.57
2022-12-15T05:35:45.265Z,10.90
2022-12-15T05:38:14.177Z,8.95
2022-12-15T05:40:43.931Z,10.40
2022-12-15T05:43:12.614Z,9.35
2022-12-15T05:45:41.323Z,25.80
2022-12-15T05:48:10.212Z,30.73
2022-12-15T05:50:38.924Z,43.22
2022-12-15T05:53:08.542Z,23.08
2022-12-15T05:55:41.611Z,19.00
2022-12-15T05:58:11.749Z,13.40
2022-12-15T06:00:40.953Z,11.57
2022-12-15T06:03:12.499Z,10.13
2022-12-15T06:05:41.392Z,12.63
2022-12-15T06:08:10.038Z,23.90
2022-12-15T06:10:38.905Z,21.92
2022-12-15T06:13:07.644Z,18.70
2022-12-15T06:15:36.665Z,17.33
2022-12-15T06:18:05.569Z,29.42
2022-12-15T06:20:34.335Z,20.38
2022-12-15T06:23:03.428Z,14.63
2022-12-15T06:25:32.226Z,15.80
2022-12-15T06:28:02.052Z,40.38
2022-12-15T06:30:30.983Z,31.55
2022-12-15T06:32:59.630Z,36.15
2022-12-15T06:35:28.534Z,37.20
2022-12-15T06:37:57.171Z,25.25
2022-12-15T06:40:26.125Z,27.15
2022-12-15T06:42:54.761Z,27.02
2022-12-15T06:45:23.540Z,20.27
2022-12-15T06:47:54.244Z,17.38
2022-12-15T06:50:26.879Z,12.48
2022-12-15T06:52:55.586Z,29.08
2022-12-15T06:55:24.293Z,19.73
2022-12-15T06:57:52.969Z,20.35
2022-12-15T07:00:21.669Z,14.43
2022-12-15T07:02:50.599Z,14.43
2022-12-15T07:05:19.453Z,13.50
2022-12-15T07:07:48.575Z,9.57
2022-12-15T07:10:17.381Z,13.02
2022-12-15T07:12:46.077Z,22.67
2022-12-15T07:15:15.551Z,26.70
2022-12-15T07:17:44.260Z,28.35
2022-12-15T07:20:13.384Z,26.95
2022-12-15T07:22:42.030Z,23.60
2022-12-15T07:25:11.196Z,16.02
2022-12-15T07:27:39.842Z,28.42
2022-12-15T07:30:18.979Z,36.40
2022-12-15T07:32:50.378Z,37.55
2022-12-15T07:35:22.693Z,43.38
2022-12-15T07:37:51.681Z,36.70
2022-12-15T07:40:20.663Z,37.40
2022-12-15T07:42:49.743Z,40.78
2022-12-15T07:45:18.724Z,41.83
2022-12-15T07:47:51.166Z,26.63
2022-12-15T07:50:20.187Z,15.60
2022-12-15T07:52:49.147Z,14.70
2022-12-15T07:55:27.723Z,13.52
2022-12-15T07:58:07.124Z,9.77
2022-12-15T08:00:36.055Z,7.63
2022-12-15T08:03:05.427Z,6.47
2022-12-15T08:05:34.367Z,6.78
2022-12-15T08:08:08.508Z,5.85
2022-12-15T08:10:41.805Z,5.80
2022-12-15T08:13:10.910Z,6.00
2022-12-15T08:15:43.903Z,6.15
2022-12-15T08:18:12.751Z,6.13
2022-12-15T08:20:41.669Z,6.30
2022-12-15T08:23:10.518Z,6.43
2022-12-15T08:25:39.848Z,6.55
2022-12-15T08:28:08.909Z,6.75
2022-12-15T08:30:37.978Z,6.10
2022-12-15T08:33:07.060Z,6.45
2022-12-15T08:35:55.752Z,9.05
2022-12-15T08:38:24.827Z,8.77
2022-12-15T08:40:53.700Z,7.18
2022-12-15T08:43:22.749Z,6.47
2022-12-15T08:45:51.682Z,6.63
2022-12-15T08:48:20.651Z,6.22
2022-12-15T08:50:49.509Z,6.40
2022-12-15T08:53:41.351Z,6.07
2022-12-15T08:56:13.961Z,6.00
2022-12-15T08:58:44.059Z,5.95
2022-12-15T09:01:23.382Z,5.90
2022-12-15T09:03:54.554Z,5.43
2022-12-15T09:06:36.389Z,5.57
2022-12-15T09:09:08.440Z,10.50
2022-12-15T09:11:38.293Z,10.10
2022-12-15T09:14:08.517Z,7.50
2022-12-15T09:16:37.736Z,6.53
2022-12-15T09:19:09.065Z,5.68
2022-12-15T09:21:40.176Z,6.93
2022-12-15T09:24:09.256Z,7.43
2022-12-15T09:26:38.442Z,6.10
2022-12-15T09:29:07.396Z,5.32
2022-12-15T09:31:38.846Z,5.50
2022-12-15T09:34:08.138Z,5.40
2022-12-15T09:36:37.376Z,6.38
2022-12-15T09:39:06.409Z,4.35
2022-12-15T09:41:37.211Z,4.65
2022-12-15T09:44:16.017Z,5.45
2022-12-15T09:47:02.312Z,5.20
2022-12-15T09:49:31.147Z,5.47
2022-12-15T09:52:11.101Z,5.13
2022-12-15T09:54:44.828Z,5.40
2022-12-15T09:57:24.790Z,4.75
2022-12-15T09:59:57.009Z,4.30
2022-12-15T10:02:58.294Z,3.60
2022-12-15T10:06:14.840Z,6.32
2022-12-15T10:08:40.009Z,4.75
2022-12-15T10:11:33.438Z,4.18
2022-12-15T10:14:20.472Z,4.40
2022-12-15T10:16:53.528Z,3.90
2022-12-15T10:19:50.338Z,4.50
2022-12-15T10:22:28.352Z,3.60
2022-12-15T10:28:08.133Z,4.10
2022-12-15T10:30:59.304Z,6.65
2022-12-15T10:33:35.530Z,7.85
2022-12-15T10:36:16.964Z,4.80
2022-12-15T10:38:50.541Z,4.25
2022-12-15T10:41:28.612Z,6.00
2022-12-15T10:43:58.227Z,11.63
2022-12-15T10:46:29.492Z,14.07
2022-12-15T10:49:01.327Z,13.30
2022-12-15T10:51:34.139Z,10.45
2022-12-15T10:54:04.222Z,12.27
2022-12-15T10:56:37.951Z,17.00
2022-12-15T10:59:25.648Z,13.70
2022-12-15T11:01:55.068Z,9.63
2022-12-15T11:04:30.908Z,4.60
2022-12-15T11:07:02.672Z,4.47
2022-12-15T11:09:37.795Z,3.88
2022-12-15T11:12:40.806Z,10.30
2022-12-15T11:15:32.990Z,17.95
2022-12-15T11:18:48.816Z,25.58
2022-12-15T11:21:34.321Z,12.15
2022-12-15T11:24:22.562Z,3.40
2022-12-15T11:27:11.291Z,3.13
2022-12-15T11:30:08.438Z,3.40
2022-12-15T11:32:39.647Z,4.72
2022-12-15T11:35:15.005Z,3.42
2022-12-15T11:37:45.953Z,3.00
2022-12-15T11:40:40.771Z,3.75
2022-12-15T11:43:35.018Z,3.17
2022-12-15T11:46:18.051Z,4.60
2022-12-15T11:49:12.975Z,6.20
2022-12-15T11:52:14.128Z,10.10
2022-12-15T11:54:56.340Z,11.27
2022-12-15T11:58:01.532Z,5.18
2022-12-15T12:00:37.575Z,2.40
2022-12-15T12:03:38.611Z,4.45
2022-12-15T12:06:12.998Z,9.77
2022-12-15T12:09:03.414Z,9.02
2022-12-15T12:12:06.409Z,4.28
2022-12-15T12:15:16.423Z,3.03
2022-12-15T12:17:51.960Z,2.83
2022-12-15T12:20:24.016Z,5.07
2022-12-15T12:23:03.931Z,5.78
2022-12-15T12:25:42.759Z,3.58
2022-12-15T12:28:54.210Z,2.30
2022-12-15T12:31:44.875Z,2.05
2022-12-15T12:34:27.075Z,2.35
2022-12-15T12:37:05.455Z,2.30
2022-12-15T12:39:34.882Z,5.57
2022-12-15T12:42:16.746Z,6.93
2022-12-15T12:44:46.031Z,6.63
2022-12-15T12:47:29.375Z,2.78
2022-12-15T12:50:04.458Z,4.25
2022-12-15T12:52:36.191Z,5.55
2022-12-15T12:55:36.424Z,4.28
2022-12-15T12:58:25.663Z,4.13
2022-12-15T13:01:08.766Z,4.45
2022-12-15T13:03:42.688Z,3.05
2022-12-15T13:06:23.455Z,2.70
2022-12-15T13:08:56.528Z,2.67
2022-12-15T13:11:46.945Z,3.90
2022-12-15T13:14:28.218Z,2.40
2022-12-15T13:20:02.507Z,2.47
2022-12-15T13:22:43.433Z,2.92
2022-12-15T13:26:02.812Z,2.70
2022-12-15T13:28:39.702Z,2.35
2022-12-15T13:31:18.177Z,2.28
2022-12-15T13:33:51.634Z,2.63
2022-12-15T13:36:39.036Z,2.65
2022-12-15T13:39:14.135Z,2.85
2022-12-15T13:45:07.343Z,3.00
2022-12-15T13:47:36.652Z,2.40
2022-12-15T13:50:30.996Z,3.00
2022-12-15T13:53:20.286Z,2.70
2022-12-15T13:56:08.382Z,2.72
2022-12-15T13:58:49.173Z,2.85
2022-12-15T14:01:27.258Z,2.67
2022-12-15T14:04:17.060Z,2.60
2022-12-15T14:06:54.839Z,2.20
2022-12-15T14:09:43.216Z,2.78
2022-12-15T14:12:14.874Z,2.50
2022-12-15T14:14:50.859Z,2.30
2022-12-15T14:17:21.069Z,2.40
2022-12-15T14:19:51.762Z,2.70
2022-12-15T14:22:29.690Z,2.65
2022-12-15T14:25:21.572Z,2.20
2022-12-15T14:30:41.015Z,2.67
2022-12-15T14:33:16.753Z,3.20
2022-12-15T14:35:51.400Z,2.67
2022-12-15T14:38:42.202Z,2.80
2022-12-15T14:41:27.812Z,4.38
2022-12-15T14:44:38.011Z,3.60
2022-12-15T14:47:18.758Z,3.10
2022-12-15T14:49:49.258Z,2.85
2022-12-15T14:52:39.844Z,2.88
2022-12-15T14:55:39.109Z,2.70
2022-12-15T14:58:37.184Z,2.83
2022-12-15T15:01:24.631Z,2.88
2022-12-15T15:03:06.549Z,3.45
2022-12-15T15:04:04.994Z,2.72
2022-12-15T15:06:41.912Z,3.25
2022-12-15T15:09:22.881Z,2.53
2022-12-15T15:11:58.283Z,3.20
2022-12-15T15:14:33.599Z,3.03
2022-12-15T15:17:22.903Z,3.00
2022-12-15T15:20:17.050Z,2.60
2022-12-15T15:22:47.764Z,2.80
2022-12-15T15:25:27.995Z,2.50
2022-12-15T15:28:12.944Z,3.08
2022-12-15T15:30:48.665Z,3.05
2022-12-15T15:33:18.863Z,2.90
2022-12-15T15:35:53.711Z,2.70
2022-12-15T15:38:33.151Z,3.13
2022-12-15T15:41:16.031Z,3.13
2022-12-15T15:43:45.622Z,3.42
2022-12-15T15:46:19.908Z,3.40
2022-12-15T15:48:51.680Z,2.90
2022-12-15T15:51:21.549Z,3.65
2022-12-15T15:53:50.501Z,3.35
2022-12-15T15:56:19.888Z,3.10
2022-12-15T15:58:48.643Z,3.22
2022-12-15T16:01:21.635Z,3.00
2022-12-15T16:03:50.699Z,2.80
2022-12-15T16:06:24.899Z,3.00
2022-12-15T16:08:55.147Z,3.00
2022-12-15T16:11:25.546Z,3.30
2022-12-15T16:13:54.340Z,3.92
2022-12-15T16:16:25.606Z,4.68
2022-12-15T16:18:54.498Z,5.22
2022-12-15T16:21:26.041Z,5.15
2022-12-15T16:23:56.403Z,4.45
2022-12-15T16:26:33.779Z,3.53
2022-12-15T16:29:02.596Z,3.45
2022-12-15T16:31:41.429Z,3.28
2022-12-15T16:34:10.903Z,3.22
2022-12-15T16:36:43.172Z,3.35
2022-12-15T16:39:38.193Z,3.33
2022-12-15T16:42:13.048Z,2.95
2022-12-15T16:44:41.897Z,3.20
2022-12-15T16:47:10.800Z,2.90
2022-12-15T16:49:40.471Z,3.42
2022-12-15T16:52:20.838Z,3.38
2022-12-15T16:54:50.982Z,3.30
2022-12-15T16:57:19.820Z,3.88
2022-12-15T16:59:49.984Z,3.28
2022-12-15T17:02:27.881Z,3.65
2022-12-15T17:04:57.087Z,3.55
2022-12-15T17:07:28.547Z,3.65
2022-12-15T17:09:57.990Z,2.95
2022-12-15T17:12:26.935Z,2.75
2022-12-15T17:14:55.618Z,3.08
2022-12-15T17:17:24.424Z,2.95
2022-12-15T17:20:27.395Z,3.35
2022-12-15T17:22:41.993Z,2.78
2022-12-15T17:25:37.464Z,3.30
2022-12-15T17:28:20.804Z,3.30
2022-12-15T17:30:51.354Z,3.28
2022-12-15T17:33:28.953Z,3.28
2022-12-15T17:36:02.082Z,3.35
2022-12-15T17:38:31.735Z,3.65
2022-12-15T17:41:02.963Z,3.60
2022-12-15T17:43:35.671Z,3.50
2022-12-15T17:46:05.193Z,3.10
2022-12-15T17:48:34.128Z,3.30
2022-12-15T17:51:02.970Z,3.30
2022-12-15T17:53:32.465Z,4.13
2022-12-15T17:56:01.619Z,3.72
2022-12-15T17:58:30.275Z,3.97
2022-12-15T18:00:59.017Z,3.70
2022-12-15T18:03:28.156Z,3.83
2022-12-15T18:05:56.982Z,3.45
2022-12-15T18:08:28.587Z,3.38
2022-12-15T18:10:58.764Z,3.63
2022-12-15T18:13:35.008Z,3.90
2022-12-15T18:16:04.540Z,4.38
2022-12-15T18:18:33.465Z,3.88
2022-12-15T18:21:13.582Z,3.58
2022-12-15T18:23:42.733Z,3.65
2022-12-15T18:26:15.513Z,3.95
2022-12-15T18:28:44.767Z,3.65
2022-12-15T18:31:28.090Z,4.18
2022-12-15T18:34:04.499Z,3.63
2022-12-15T18:36:33.733Z,3.90
2022-12-15T18:39:27.485Z,3.40
2022-12-15T18:41:56.229Z,2.83
2022-12-15T18:44:32.145Z,4.00
2022-12-15T18:47:03.509Z,3.30
2022-12-15T18:49:32.261Z,3.67
2022-12-15T18:52:02.730Z,3.22
2022-12-15T18:54:33.561Z,3.25
2022-12-15T18:57:04.679Z,3.10
2022-12-15T18:59:33.403Z,3.08
2022-12-15T19:02:02.724Z,2.53
2022-12-15T19:04:33.813Z,3.10
2022-12-15T19:07:07.667Z,2.92
2022-12-15T19:09:36.580Z,2.95
2022-12-15T19:12:20.646Z,3.28
2022-12-15T19:14:52.117Z,3.08
2022-12-15T19:17:41.280Z,3.08
2022-12-15T19:20:43.658Z,2.83
2022-12-15T19:23:15.964Z,2.70
2022-12-15T19:25:47.161Z,3.00
2022-12-15T19:28:19.043Z,3.00
2022-12-15T19:30:50.785Z,3.15
2022-12-15T19:33:22.591Z,2.80
2022-12-15T19:35:52.817Z,3.40
2022-12-15T19:38:25.540Z,3.35
2022-12-15T19:40:56.076Z,3.40
2022-12-15T19:43:25.571Z,3.20
2022-12-15T19:45:54.675Z,2.80
2022-12-15T19:48:24.297Z,3.00
2022-12-15T19:50:55.018Z,3.20
2022-12-15T19:53:27.234Z,3.25
2022-12-15T19:55:59.155Z,3.20
2022-12-15T19:58:33.084Z,3.90
2022-12-15T20:01:07.324Z,3.53
2022-12-15T20:03:36.888Z,3.40
2022-12-15T20:06:26.633Z,3.00
2022-12-15T20:08:57.629Z,3.20
2022-12-15T20:11:28.776Z,3.15
2022-12-15T20:13:57.765Z,3.10
2022-12-15T20:16:26.467Z,3.30
2022-12-15T20:18:56.844Z,3.08
2022-12-15T20:21:33.958Z,3.03
2022-12-15T20:24:08.452Z,4.05
2022-12-15T20:26:38.846Z,3.20
2022-12-15T20:29:24.207Z,3.08
2022-12-15T20:31:53.965Z,3.03
2022-12-15T20:34:22.978Z,2.80
2022-12-15T20:36:52.403Z,3.10
2022-12-15T20:39:32.294Z,2.90
2022-12-15T20:42:01.358Z,3.30
2022-12-15T20:44:31.774Z,2.72
2022-12-15T20:47:00.524Z,2.70
2022-12-15T20:49:36.418Z,2.63
2022-12-15T20:52:05.182Z,2.72
2022-12-15T20:54:36.654Z,2.55
2022-12-15T20:57:05.383Z,2.80
2022-12-15T20:59:33.987Z,3.08
2022-12-15T21:02:20.633Z,2.95
2022-12-15T21:04:52.683Z,2.78
2022-12-15T21:07:23.780Z,2.58
2022-12-15T21:09:55.084Z,2.80
2022-12-15T21:12:31.131Z,2.92
2022-12-15T21:14:59.828Z,3.67
2022-12-15T21:17:28.618Z,2.92
2022-12-15T21:19:57.359Z,2.95
2022-12-15T21:22:31.201Z,3.63
2022-12-15T21:25:01.227Z,2.72
2022-12-15T21:27:29.912Z,2.83
2022-12-15T21:29:58.507Z,2.75
2022-12-15T21:32:27.283Z,2.90
2022-12-15T21:34:55.935Z,3.13
2022-12-15T21:37:31.839Z,2.72
2022-12-15T21:40:03.478Z,2.78
2022-12-15T21:42:36.242Z,2.90
2022-12-15T21:45:27.953Z,2.78
2022-12-15T21:48:15.186Z,2.40
2022-12-15T21:50:49.507Z,3.13
2022-12-15T21:53:20.454Z,2.63
2022-12-15T21:56:02.583Z,2.45
2022-12-15T21:58:31.698Z,2.22
2022-12-15T22:01:01.670Z,2.13
2022-12-15T22:03:30.393Z,2.50
2022-12-15T22:06:02.273Z,2.20
2022-12-15T22:08:34.382Z,2.20
2022-12-15T22:11:19.122Z,2.10
2022-12-15T22:13:49.075Z,1.63
2022-12-15T22:16:18.166Z,1.92
2022-12-15T22:18:57.104Z,1.60
2022-12-15T22:21:28.377Z,2.13
2022-12-15T22:23:57.144Z,3.58
2022-12-15T22:26:33.411Z,2.28
2022-12-15T22:29:14.692Z,1.55
2022-12-15T22:31:43.583Z,1.95
2022-12-15T22:34:22.751Z,1.70
2022-12-15T22:36:55.144Z,1.80
2022-12-15T22:39:24.273Z,1.63
2022-12-15T22:41:54.299Z,1.60
2022-12-15T22:44:43.093Z,1.65
2022-12-15T22:47:20.570Z,1.50
2022-12-15T22:49:51.633Z,1.58
2022-12-15T22:52:21.932Z,2.00
2022-12-15T22:54:50.843Z,1.92
2022-12-15T22:57:26.064Z,1.60
2022-12-15T23:00:20.973Z,1.80
2022-12-15T23:05:27.399Z,1.38
2022-12-15T23:07:56.422Z,1.45
2022-12-15T23:10:43.550Z,1.73
2022-12-15T23:13:12.305Z,1.60
2022-12-15T23:16:04.927Z,2.70
2022-12-15T23:18:33.827Z,2.03
2022-12-15T23:21:05.295Z,1.70
2022-12-15T23:23:36.677Z,2.03
2022-12-15T23:26:06.304Z,1.90
2022-12-15T23:28:35.608Z,2.45
2022-12-15T23:31:14.225Z,3.15
2022-12-15T23:33:43.562Z,2.40
2022-12-15T23:36:12.937Z,3.88
2022-12-15T23:38:45.471Z,10.38
2022-12-15T23:41:20.012Z,7.68
2022-12-15T23:43:48.993Z,6.60
2022-12-15T23:46:19.379Z,5.45
2022-12-15T23:48:48.302Z,3.42
2022-12-15T23:51:19.302Z,2.53
2022-12-15T23:53:49.116Z,3.25
2022-12-15T23:56:24.069Z,4.28
2022-12-15T23:58:58.298Z,3.70
